Time;durP1;ratioP1;P1;durP2;ratioP2;P2;SDS_P1;SDS_P2;PMS_P1;PMS_P2;Temp;Humidity;BMP_temperature;BMP_pressure;BME280_temperature;BME280_humidity;BME280_pressure;Samples;Min_cycle;Max_cycle;Signal;HPM_P1;HPM_P2
2023/06/30 00:02:01;;;;;;;17.80;14.85;;;22.00;99.90;;;;;;5032205;28;20382;-54
2023/06/30 00:04:47;;;;;;;17.23;14.32;;;22.00;99.90;;;;;;5033756;28;20021;-52
2023/06/30 00:07:33;;;;;;;16.95;15.18;;;22.00;99.90;;;;;;5032947;28;20494;-54
2023/06/30 00:10:19;;;;;;;16.95;14.90;;;22.10;99.90;;;;;;5033595;28;20113;-54
2023/06/30 00:13:05;;;;;;;16.83;13.63;;;22.10;99.90;;;;;;5031662;28;20053;-53
2023/06/30 00:15:51;;;;;;;17.60;14.70;;;22.20;99.90;;;;;;5034938;28;20030;-51
2023/06/30 00:18:37;;;;;;;17.52;14.93;;;22.20;99.90;;;;;;5041224;28;20033;-52
2023/06/30 00:21:23;;;;;;;17.33;14.90;;;22.10;99.90;;;;;;5035852;28;20090;-53
2023/06/30 00:24:10;;;;;;;20.38;15.77;;;22.10;99.90;;;;;;5034900;28;20034;-55
2023/06/30 00:26:56;;;;;;;18.70;15.25;;;22.10;99.90;;;;;;5035389;28;20083;-52
2023/06/30 00:29:42;;;;;;;23.23;15.63;;;22.00;99.90;;;;;;5035982;28;20084;-50
2023/06/30 00:32:31;;;;;;;18.33;16.10;;;21.90;99.90;;;;;;5035104;28;20120;-55
2023/06/30 00:35:17;;;;;;;19.40;16.10;;;21.80;99.90;;;;;;5036424;28;20068;-54
2023/06/30 00:38:03;;;;;;;18.25;15.40;;;21.80;99.90;;;;;;5037047;28;20089;-56
2023/06/30 00:40:49;;;;;;;19.50;16.08;;;21.70;99.90;;;;;;5041357;28;20064;-55
2023/06/30 00:43:35;;;;;;;17.83;15.27;;;21.80;99.90;;;;;;5023766;28;20048;-56
2023/06/30 00:46:21;;;;;;;19.90;17.30;;;21.80;99.90;;;;;;5034205;28;20040;-55
2023/06/30 00:49:07;;;;;;;19.13;16.08;;;21.70;99.90;;;;;;5034780;28;20091;-56
2023/06/30 00:51:54;;;;;;;19.67;16.80;;;21.70;99.90;;;;;;5035203;28;20044;-51
2023/06/30 00:54:40;;;;;;;21.10;16.88;;;21.70;99.90;;;;;;5042767;28;20040;-52
2023/06/30 00:57:26;;;;;;;18.10;16.13;;;21.70;99.90;;;;;;5042205;28;20022;-55
2023/06/30 01:00:12;;;;;;;21.20;16.75;;;21.70;99.90;;;;;;5038905;28;20029;-53
2023/06/30 01:03:11;;;;;;;19.73;16.33;;;21.70;99.90;;;;;;5034648;28;20120;-52
2023/06/30 01:06:15;;;;;;;19.10;16.52;;;21.70;99.90;;;;;;5033762;28;20030;-55
2023/06/30 01:09:13;;;;;;;18.67;16.02;;;21.70;99.90;;;;;;5034330;28;20437;-54
2023/06/30 01:11:59;;;;;;;21.50;16.48;;;21.70;99.90;;;;;;5034436;28;20053;-55
2023/06/30 01:14:47;;;;;;;19.58;16.92;;;21.70;99.90;;;;;;5034146;28;20033;-50
2023/06/30 01:17:35;;;;;;;18.40;16.23;;;21.70;99.90;;;;;;5033665;28;20033;-52
2023/06/30 01:20:22;;;;;;;17.42;15.57;;;21.70;99.90;;;;;;5021001;28;20021;-51
2023/06/30 01:23:17;;;;;;;19.40;15.88;;;21.70;99.90;;;;;;5034318;28;20079;-55
2023/06/30 01:26:04;;;;;;;16.67;14.60;;;21.80;99.90;;;;;;5034485;28;20034;-54
2023/06/30 01:28:50;;;;;;;17.45;14.25;;;21.80;99.90;;;;;;5030209;28;20041;-52
2023/06/30 01:31:37;;;;;;;17.35;14.43;;;21.90;99.90;;;;;;5035072;28;20040;-58
2023/06/30 01:34:22;;;;;;;17.38;15.45;;;22.00;99.90;;;;;;5034696;28;20079;-55
2023/06/30 01:37:08;;;;;;;18.55;15.55;;;22.00;99.90;;;;;;5030985;28;20509;-56
2023/06/30 01:39:54;;;;;;;17.15;15.35;;;21.90;99.90;;;;;;5036010;28;20276;-55
2023/06/30 01:42:40;;;;;;;19.45;16.48;;;21.80;99.90;;;;;;5040183;28;20040;-57
2023/06/30 01:45:28;;;;;;;17.33;15.27;;;21.70;99.90;;;;;;5038829;28;20116;-55
2023/06/30 01:48:14;;;;;;;18.63;14.93;;;21.60;99.90;;;;;;5034822;28;20087;-51
2023/06/30 01:51:01;;;;;;;15.90;14.20;;;21.60;99.90;;;;;;5059116;28;20072;-54
2023/06/30 01:53:47;;;;;;;18.25;15.98;;;21.70;99.90;;;;;;5033918;28;20049;-53
2023/06/30 01:56:35;;;;;;;18.17;15.30;;;21.70;99.90;;;;;;5034909;28;20021;-55
2023/06/30 01:59:21;;;;;;;18.92;15.18;;;21.70;99.90;;;;;;5033589;28;20052;-55
2023/06/30 02:02:07;;;;;;;17.85;15.38;;;21.70;99.90;;;;;;5059941;28;20033;-53
2023/06/30 02:04:53;;;;;;;18.17;15.75;;;21.70;99.90;;;;;;5033095;28;20087;-57
2023/06/30 02:07:39;;;;;;;19.45;16.20;;;21.70;99.90;;;;;;5031627;28;20029;-56
2023/06/30 02:10:25;;;;;;;27.58;17.40;;;21.60;99.90;;;;;;5033573;28;20091;-54
2023/06/30 02:13:11;;;;;;;21.38;16.77;;;21.50;99.90;;;;;;5033213;28;20525;-53
2023/06/30 02:15:57;;;;;;;19.30;16.42;;;21.50;99.90;;;;;;5033027;28;20096;-51
2023/06/30 02:18:43;;;;;;;20.30;16.67;;;21.40;99.90;;;;;;5033392;28;20452;-56
2023/06/30 02:21:29;;;;;;;21.33;17.23;;;21.40;99.90;;;;;;5032703;28;20095;-54
2023/06/30 02:24:15;;;;;;;19.08;16.27;;;21.40;99.90;;;;;;5019268;28;20088;-55
2023/06/30 02:27:01;;;;;;;20.48;16.95;;;21.40;99.90;;;;;;5032733;28;20037;-53
2023/06/30 02:29:47;;;;;;;19.95;16.98;;;21.40;99.90;;;;;;5018746;28;20029;-52
2023/06/30 02:32:37;;;;;;;22.95;17.45;;;21.40;99.90;;;;;;5040702;28;20042;-56
2023/06/30 02:35:24;;;;;;;19.20;17.08;;;21.30;99.90;;;;;;5044849;28;20052;-55
2023/06/30 02:38:10;;;;;;;21.27;17.75;;;21.30;99.90;;;;;;5033346;28;20026;-54
2023/06/30 02:40:56;;;;;;;20.33;17.38;;;21.30;99.90;;;;;;5033031;28;20036;-56
2023/06/30 02:43:43;;;;;;;20.83;17.40;;;21.30;99.90;;;;;;5032841;28;20081;-52
2023/06/30 02:46:29;;;;;;;19.70;17.60;;;21.30;99.90;;;;;;5032676;28;20041;-55
2023/06/30 02:49:15;;;;;;;20.88;18.45;;;21.30;99.90;;;;;;5031300;28;20101;-53
2023/06/30 02:52:01;;;;;;;19.33;16.88;;;21.30;99.90;;;;;;5032558;28;20068;-56
2023/06/30 02:54:47;;;;;;;20.67;17.67;;;21.30;99.90;;;;;;5030306;28;20029;-57
2023/06/30 02:57:33;;;;;;;20.17;17.73;;;21.30;99.90;;;;;;5031022;28;20044;-56
2023/06/30 03:00:20;;;;;;;19.73;17.55;;;21.40;99.90;;;;;;5031331;28;20026;-56
2023/06/30 03:03:06;;;;;;;22.02;18.42;;;21.30;99.90;;;;;;5031519;28;20030;-56
2023/06/30 03:05:52;;;;;;;19.70;16.77;;;21.20;99.90;;;;;;5032768;28;20033;-56
2023/06/30 03:08:38;;;;;;;20.10;17.55;;;21.20;99.90;;;;;;5037009;28;20033;-55
2023/06/30 03:11:25;;;;;;;18.40;16.42;;;21.30;99.90;;;;;;5043038;28;20397;-58
2023/06/30 03:14:11;;;;;;;20.00;16.75;;;21.30;99.90;;;;;;5040499;28;20088;-55
2023/06/30 03:16:57;;;;;;;18.88;16.88;;;21.30;99.90;;;;;;5021109;28;20040;-56
2023/06/30 03:19:43;;;;;;;17.45;15.25;;;21.30;99.90;;;;;;5035965;28;20679;-56
2023/06/30 03:22:29;;;;;;;22.88;17.83;;;21.30;99.90;;;;;;5031887;28;20040;-55
2023/06/30 03:25:15;;;;;;;22.50;18.05;;;21.40;99.90;;;;;;5031802;28;20034;-56
2023/06/30 03:28:01;;;;;;;21.10;17.80;;;21.40;99.90;;;;;;5031678;28;20037;-55
2023/06/30 03:30:47;;;;;;;19.17;16.75;;;21.30;99.90;;;;;;5029483;28;20117;-53
2023/06/30 03:33:33;;;;;;;21.95;17.42;;;21.40;99.90;;;;;;5025286;28;20029;-55
2023/06/30 03:36:19;;;;;;;17.95;16.00;;;21.30;99.90;;;;;;5031622;28;20025;-55
2023/06/30 03:39:05;;;;;;;20.23;17.55;;;21.40;99.90;;;;;;5030970;28;20105;-55
2023/06/30 03:41:51;;;;;;;20.13;17.60;;;21.30;99.90;;;;;;5032716;28;20105;-55
2023/06/30 03:44:37;;;;;;;18.65;16.48;;;21.40;99.90;;;;;;5029637;28;20057;-56
2023/06/30 03:47:23;;;;;;;18.77;16.63;;;21.40;99.90;;;;;;5030859;28;20513;-54
2023/06/30 03:50:10;;;;;;;19.15;17.08;;;21.30;99.90;;;;;;5032085;28;20037;-53
2023/06/30 03:52:56;;;;;;;22.15;18.65;;;21.40;99.90;;;;;;5029066;28;20406;-51
2023/06/30 03:55:41;;;;;;;18.90;16.90;;;21.40;99.90;;;;;;5030430;28;20033;-54
2023/06/30 03:58:28;;;;;;;20.40;16.90;;;21.40;99.90;;;;;;5017625;28;20021;-54
2023/06/30 04:01:14;;;;;;;19.40;16.98;;;21.40;99.90;;;;;;5030960;28;20064;-56
2023/06/30 04:04:00;;;;;;;22.02;17.70;;;21.40;99.90;;;;;;5029262;28;20033;-55
2023/06/30 04:06:47;;;;;;;19.50;16.95;;;21.40;99.90;;;;;;5031840;28;20030;-56
2023/06/30 04:09:33;;;;;;;19.73;17.05;;;21.40;99.90;;;;;;5035244;28;20095;-57
2023/06/30 04:12:19;;;;;;;20.05;16.70;;;21.40;99.90;;;;;;5034848;28;20036;-55
2023/06/30 04:15:07;;;;;;;20.88;18.02;;;21.40;99.90;;;;;;5034347;28;20025;-53
2023/06/30 04:17:53;;;;;;;23.27;18.08;;;21.40;99.90;;;;;;5034991;28;20486;-56
2023/06/30 04:20:39;;;;;;;23.50;18.55;;;21.50;99.90;;;;;;5035758;28;20453;-57
2023/06/30 04:23:25;;;;;;;21.42;17.67;;;21.50;99.90;;;;;;5035725;28;20752;-55
2023/06/30 04:26:11;;;;;;;20.88;17.40;;;21.50;99.90;;;;;;5035251;28;20026;-55
2023/06/30 04:28:57;;;;;;;19.33;16.50;;;21.40;99.90;;;;;;5035766;28;20596;-56
2023/06/30 04:31:43;;;;;;;20.70;17.40;;;21.50;99.90;;;;;;5035643;28;20033;-56
2023/06/30 04:34:29;;;;;;;21.15;17.38;;;21.50;99.90;;;;;;5034691;28;20558;-54
2023/06/30 04:37:15;;;;;;;21.23;18.20;;;21.50;99.90;;;;;;5035288;28;20038;-55
2023/06/30 04:40:04;;;;;;;22.65;18.35;;;21.50;99.90;;;;;;5035413;28;20022;-53
2023/06/30 04:42:50;;;;;;;23.70;19.00;;;21.50;99.90;;;;;;5061565;28;20029;-56
2023/06/30 04:45:36;;;;;;;20.45;17.30;;;21.60;99.90;;;;;;5061206;28;20026;-53
2023/06/30 04:48:22;;;;;;;21.98;18.98;;;21.60;99.90;;;;;;5035827;28;20078;-54
2023/06/30 04:51:08;;;;;;;23.48;19.52;;;21.60;99.90;;;;;;5050354;28;20296;-54
2023/06/30 04:53:54;;;;;;;25.00;20.23;;;21.50;99.90;;;;;;5046578;28;20029;-55
2023/06/30 04:56:40;;;;;;;19.98;17.77;;;21.50;99.90;;;;;;5038970;28;20163;-56
2023/06/30 04:59:26;;;;;;;20.13;18.02;;;21.30;99.90;;;;;;5034898;28;20136;-55
2023/06/30 05:02:12;;;;;;;23.48;19.08;;;21.40;99.90;;;;;;5034668;28;20044;-54
2023/06/30 05:04:58;;;;;;;23.90;19.88;;;21.40;99.90;;;;;;5031590;28;20037;-57
2023/06/30 05:07:44;;;;;;;22.65;18.77;;;21.30;99.90;;;;;;5034891;28;20482;-57
2023/06/30 05:10:29;;;;;;;21.65;19.27;;;21.30;99.90;;;;;;5035265;28;20033;-53
2023/06/30 05:13:15;;;;;;;22.27;19.75;;;21.30;99.90;;;;;;5035552;28;20379;-55
2023/06/30 05:16:01;;;;;;;22.75;17.75;;;21.30;99.90;;;;;;5036418;28;20411;-54
2023/06/30 05:18:47;;;;;;;23.58;19.05;;;21.40;99.90;;;;;;5035310;28;20033;-57
2023/06/30 05:21:33;;;;;;;25.02;18.85;;;21.40;99.90;;;;;;5034923;28;20453;-56
2023/06/30 05:24:19;;;;;;;24.73;17.80;;;21.30;99.90;;;;;;5035924;28;20056;-55
2023/06/30 05:27:05;;;;;;;23.65;18.48;;;21.20;99.90;;;;;;5035750;28;20065;-59
2023/06/30 05:29:51;;;;;;;21.70;17.55;;;21.20;99.90;;;;;;5037980;28;20080;-56
2023/06/30 05:32:37;;;;;;;23.33;16.98;;;21.20;99.90;;;;;;5039506;28;20032;-55
2023/06/30 05:35:23;;;;;;;23.90;18.27;;;21.20;99.90;;;;;;5047116;28;20066;-51
2023/06/30 05:38:09;;;;;;;28.48;21.17;;;21.10;99.90;;;;;;5033818;28;20405;-56
2023/06/30 05:40:55;;;;;;;21.50;18.42;;;21.20;99.90;;;;;;5034532;28;20379;-55
2023/06/30 05:43:41;;;;;;;27.02;19.45;;;21.30;99.90;;;;;;5060884;28;20075;-56
2023/06/30 05:46:27;;;;;;;25.20;18.90;;;21.30;99.90;;;;;;5034910;28;20026;-56
2023/06/30 05:49:13;;;;;;;24.95;20.10;;;21.40;99.90;;;;;;5036875;28;20045;-56
2023/06/30 05:51:59;;;;;;;23.70;18.70;;;21.40;99.90;;;;;;5035833;28;20072;-56
2023/06/30 05:54:45;;;;;;;25.90;18.70;;;21.40;99.90;;;;;;5034579;28;20028;-59
2023/06/30 05:57:31;;;;;;;26.13;20.20;;;21.40;99.90;;;;;;5064024;27;20108;-57
2023/06/30 06:00:17;;;;;;;26.05;18.88;;;21.40;99.90;;;;;;5034736;28;20067;-55
2023/06/30 06:03:03;;;;;;;24.23;18.50;;;21.40;99.90;;;;;;5032807;28;20037;-55
2023/06/30 06:05:50;;;;;;;22.80;18.98;;;21.50;99.90;;;;;;5033939;28;20029;-56
2023/06/30 06:08:39;;;;;;;26.08;20.42;;;21.70;99.90;;;;;;5034120;28;20033;-57
2023/06/30 06:11:25;;;;;;;27.70;19.40;;;21.70;99.90;;;;;;5033491;28;20041;-54
2023/06/30 06:14:11;;;;;;;25.77;20.00;;;21.80;99.90;;;;;;5033008;28;20057;-57
2023/06/30 06:16:57;;;;;;;25.92;19.83;;;21.80;99.90;;;;;;5032824;28;20120;-56
2023/06/30 06:19:43;;;;;;;30.73;21.35;;;21.80;99.90;;;;;;5032511;28;20108;-56
2023/06/30 06:22:29;;;;;;;30.88;22.17;;;21.90;99.90;;;;;;5033229;28;20037;-57
2023/06/30 06:25:15;;;;;;;31.85;22.92;;;21.80;99.90;;;;;;5033332;28;20030;-56
2023/06/30 06:28:01;;;;;;;29.50;23.00;;;21.80;99.90;;;;;;5032746;28;20043;-55
2023/06/30 06:30:48;;;;;;;31.83;23.88;;;21.90;99.90;;;;;;5032583;28;21698;-55
2023/06/30 06:33:34;;;;;;;29.85;23.42;;;21.90;99.90;;;;;;5029458;28;20474;-57
2023/06/30 06:36:21;;;;;;;29.88;24.45;;;21.80;99.90;;;;;;5031595;28;20488;-55
2023/06/30 06:39:07;;;;;;;32.53;24.75;;;21.80;99.90;;;;;;5032964;28;20080;-56
2023/06/30 06:41:53;;;;;;;31.20;24.70;;;21.90;99.90;;;;;;5032922;28;20037;-57
2023/06/30 06:44:39;;;;;;;31.63;24.08;;;21.80;99.90;;;;;;5032793;28;20025;-57
2023/06/30 06:48:02;;;;;;;30.63;24.55;;;21.70;99.90;;;;;;5031442;28;20563;-55
2023/06/30 06:50:53;;;;;;;37.08;25.55;;;21.90;99.90;;;;;;5013547;28;20037;-55
2023/06/30 06:53:39;;;;;;;32.55;24.25;;;21.90;99.90;;;;;;5011907;28;20030;-56
2023/06/30 06:56:25;;;;;;;34.17;25.27;;;21.80;99.90;;;;;;5013799;28;20509;-57
2023/06/30 06:59:11;;;;;;;35.83;25.65;;;21.80;99.90;;;;;;5012977;28;20109;-56
2023/06/30 07:01:57;;;;;;;36.60;26.65;;;22.10;99.90;;;;;;5012967;28;20037;-59
2023/06/30 07:04:43;;;;;;;32.22;26.42;;;22.10;99.90;;;;;;5028350;28;20524;-56
2023/06/30 07:07:29;;;;;;;33.85;25.17;;;22.20;99.90;;;;;;5069562;28;20037;-57
2023/06/30 07:10:15;;;;;;;33.33;25.55;;;22.40;99.90;;;;;;5037714;28;20041;-57
2023/06/30 07:13:02;;;;;;;34.85;26.35;;;22.40;99.90;;;;;;5033966;28;20414;-57
2023/06/30 07:15:48;;;;;;;32.67;25.17;;;22.50;99.90;;;;;;5032925;28;20048;-56
2023/06/30 07:18:34;;;;;;;33.55;25.55;;;22.50;99.90;;;;;;5032680;28;20487;-54
2023/06/30 07:21:21;;;;;;;32.90;25.70;;;22.60;99.90;;;;;;5059411;28;20037;-57
2023/06/30 07:24:07;;;;;;;32.55;24.65;;;22.70;99.90;;;;;;5013580;28;20038;-53
2023/06/30 07:26:53;;;;;;;31.80;25.05;;;22.70;99.90;;;;;;5014117;28;20044;-56
2023/06/30 07:29:39;;;;;;;36.17;25.70;;;22.50;99.90;;;;;;5013622;28;20042;-57
2023/06/30 07:32:25;;;;;;;34.63;26.05;;;22.60;99.90;;;;;;5031610;28;20044;-55
2023/06/30 07:35:12;;;;;;;33.67;25.35;;;22.60;99.90;;;;;;5033181;28;20117;-54
2023/06/30 07:37:58;;;;;;;33.08;23.73;;;22.50;99.90;;;;;;5033013;28;20021;-54
2023/06/30 07:40:44;;;;;;;32.88;24.70;;;22.70;99.90;;;;;;5033791;28;20060;-56
2023/06/30 07:43:30;;;;;;;30.88;24.27;;;22.80;99.90;;;;;;5040580;28;20033;-56
2023/06/30 07:46:16;;;;;;;31.52;25.48;;;23.00;99.90;;;;;;5048649;28;20047;-57
2023/06/30 07:49:02;;;;;;;32.45;25.42;;;22.90;99.90;;;;;;5037724;28;20033;-56
2023/06/30 07:51:48;;;;;;;32.95;24.92;;;22.90;99.90;;;;;;5034484;28;20045;-56
2023/06/30 07:54:34;;;;;;;30.60;23.83;;;23.00;99.90;;;;;;5033505;28;20042;-56
2023/06/30 07:57:20;;;;;;;28.95;23.95;;;22.90;99.90;;;;;;5033965;28;20017;-58
2023/06/30 08:00:07;;;;;;;30.65;24.63;;;22.90;99.90;;;;;;5048603;28;20021;-55
2023/06/30 08:02:52;;;;;;;32.03;24.02;;;23.00;99.90;;;;;;5015425;28;20457;-57
2023/06/30 08:05:38;;;;;;;31.98;25.30;;;22.80;99.90;;;;;;5030124;28;20513;-55
2023/06/30 08:08:24;;;;;;;36.17;26.40;;;22.60;99.90;;;;;;5035575;28;20121;-56
2023/06/30 08:11:10;;;;;;;34.78;25.55;;;22.50;99.90;;;;;;5064839;28;20064;-56
2023/06/30 08:13:56;;;;;;;32.38;25.42;;;22.50;99.90;;;;;;5047103;28;20037;-55
2023/06/30 08:16:42;;;;;;;32.65;25.65;;;22.70;99.90;;;;;;5047171;28;20033;-54
2023/06/30 08:19:28;;;;;;;32.42;25.23;;;22.60;99.90;;;;;;5020829;28;20061;-55
2023/06/30 08:22:16;;;;;;;32.72;25.58;;;22.60;99.90;;;;;;5032937;28;20043;-59
2023/06/30 08:25:02;;;;;;;34.22;26.45;;;22.70;99.90;;;;;;5057925;28;20109;-57
2023/06/30 08:27:48;;;;;;;31.75;25.85;;;22.70;99.90;;;;;;5054248;28;20037;-58
2023/06/30 08:30:34;;;;;;;29.95;25.98;;;22.70;99.90;;;;;;5046377;28;20097;-58
2023/06/30 08:33:28;;;;;;;32.10;25.48;;;22.90;99.90;;;;;;5040020;28;20040;-57
2023/06/30 08:36:14;;;;;;;31.75;24.30;;;22.80;99.90;;;;;;5029825;28;20014;-58
2023/06/30 08:39:00;;;;;;;33.50;25.58;;;22.70;99.90;;;;;;5034900;28;20037;-58
2023/06/30 08:41:49;;;;;;;37.08;27.45;;;22.70;99.90;;;;;;5035093;28;20030;-57
2023/06/30 08:44:37;;;;;;;30.73;24.95;;;22.50;99.90;;;;;;5034043;28;20463;-58
2023/06/30 08:47:28;;;;;;;33.50;26.05;;;22.40;99.90;;;;;;5034537;28;20742;-57
2023/06/30 08:50:15;;;;;;;33.72;25.88;;;22.50;99.90;;;;;;5034902;28;20501;-58
2023/06/30 08:53:02;;;;;;;34.28;26.48;;;22.40;99.90;;;;;;5035952;28;20030;-52
2023/06/30 08:55:50;;;;;;;36.05;27.40;;;22.30;99.90;;;;;;5034545;28;20024;-57
2023/06/30 08:58:37;;;;;;;36.45;27.83;;;22.30;99.90;;;;;;5033949;28;20024;-57
2023/06/30 09:01:23;;;;;;;35.40;26.98;;;22.10;99.90;;;;;;5015108;28;20073;-54
2023/06/30 09:04:10;;;;;;;34.25;27.17;;;22.00;99.90;;;;;;5023618;28;20387;-57
2023/06/30 09:06:57;;;;;;;38.30;29.02;;;22.00;99.90;;;;;;5052507;28;20110;-56
2023/06/30 09:09:49;;;;;;;36.63;27.75;;;22.00;99.90;;;;;;5053216;28;20040;-57
2023/06/30 09:12:37;;;;;;;34.40;26.27;;;22.00;99.90;;;;;;5054519;28;20496;-58
2023/06/30 09:15:25;;;;;;;39.75;29.30;;;22.10;99.90;;;;;;5054261;28;20032;-56
2023/06/30 09:18:11;;;;;;;38.15;28.88;;;22.10;99.90;;;;;;5051920;28;20438;-56
2023/06/30 09:20:57;;;;;;;36.55;29.88;;;22.00;99.90;;;;;;5054632;28;20033;-57
2023/06/30 09:23:43;;;;;;;41.88;30.15;;;22.00;99.90;;;;;;5055376;28;20025;-54
2023/06/30 09:26:30;;;;;;;39.78;30.63;;;22.00;99.90;;;;;;5061190;28;20071;-56
2023/06/30 09:29:23;;;;;;;40.20;30.38;;;21.90;99.90;;;;;;5034931;28;20030;-55
2023/06/30 09:32:09;;;;;;;38.65;29.85;;;22.00;99.90;;;;;;5014434;28;20105;-58
2023/06/30 09:34:55;;;;;;;42.75;31.60;;;21.90;99.90;;;;;;5014655;28;20032;-55
2023/06/30 09:37:44;;;;;;;38.10;29.40;;;21.80;99.90;;;;;;5014511;28;20026;-54
2023/06/30 09:40:30;;;;;;;40.20;31.48;;;21.90;99.90;;;;;;5014323;28;20486;-53
2023/06/30 09:43:18;;;;;;;40.72;31.27;;;21.60;99.90;;;;;;5014686;28;20037;-54
2023/06/30 09:46:04;;;;;;;44.28;31.80;;;21.60;99.90;;;;;;5014092;28;20513;-56
2023/06/30 09:48:54;;;;;;;42.20;30.90;;;21.40;99.90;;;;;;5014967;28;20038;-57
2023/06/30 09:51:42;;;;;;;43.67;32.40;;;21.30;99.90;;;;;;5015051;28;20666;-56
2023/06/30 09:54:30;;;;;;;43.58;32.17;;;21.20;99.90;;;;;;5015038;28;20057;-52
2023/06/30 09:57:15;;;;;;;39.13;31.67;;;21.20;99.90;;;;;;5020809;28;20017;-56
2023/06/30 10:00:01;;;;;;;40.83;31.75;;;21.20;99.90;;;;;;5040698;28;20033;-57
2023/06/30 10:03:11;;;;;;;40.10;31.08;;;21.20;99.90;;;;;;5039227;28;20033;-55
2023/06/30 10:05:57;;;;;;;39.25;30.05;;;21.30;99.90;;;;;;5051267;28;20032;-53
2023/06/30 10:08:45;;;;;;;38.17;29.38;;;21.20;99.90;;;;;;5053458;28;20040;-55
2023/06/30 10:11:33;;;;;;;43.30;31.98;;;21.20;99.90;;;;;;5053146;28;20454;-55
2023/06/30 10:14:30;;;;;;;37.97;30.08;;;21.20;99.90;;;;;;5053387;28;20112;-53
2023/06/30 10:17:17;;;;;;;36.08;29.40;;;20.90;99.90;;;;;;5051294;28;20181;-55
2023/06/30 10:20:05;;;;;;;39.03;29.85;;;20.90;99.90;;;;;;5053249;28;20029;-54
2023/06/30 10:22:56;;;;;;;38.33;30.00;;;20.80;99.90;;;;;;5052940;28;20102;-54
2023/06/30 10:25:42;;;;;;;40.63;30.92;;;20.60;99.90;;;;;;5050953;28;20043;-52
2023/06/30 10:28:28;;;;;;;39.70;28.90;;;20.60;99.90;;;;;;5052549;28;20044;-54
2023/06/30 10:31:15;;;;;;;36.60;28.88;;;20.60;99.90;;;;;;5050526;28;20109;-53
2023/06/30 10:34:01;;;;;;;37.50;28.95;;;20.40;99.90;;;;;;5039986;28;20598;-56
2023/06/30 10:36:48;;;;;;;38.95;29.77;;;20.40;99.90;;;;;;5029268;28;20379;-57
2023/06/30 10:39:35;;;;;;;39.88;30.35;;;20.40;99.90;;;;;;5026177;28;20034;-55
2023/06/30 10:42:21;;;;;;;42.22;30.30;;;20.40;99.90;;;;;;5026098;28;20375;-55
2023/06/30 10:45:07;;;;;;;36.60;28.42;;;20.30;99.90;;;;;;5028855;28;20038;-56
2023/06/30 10:47:53;;;;;;;38.47;29.80;;;20.40;99.90;;;;;;5028114;28;20034;-54
2023/06/30 10:50:44;;;;;;;39.58;29.95;;;20.40;99.90;;;;;;5032499;28;20056;-54
2023/06/30 10:53:30;;;;;;;42.30;32.00;;;20.30;99.90;;;;;;5030589;28;20034;-55
2023/06/30 10:56:16;;;;;;;39.30;29.90;;;20.50;99.90;;;;;;5032093;28;20037;-54
2023/06/30 10:59:04;;;;;;;39.80;29.17;;;20.50;99.90;;;;;;5033179;28;20438;-54
2023/06/30 11:02:12;;;;;;;37.08;29.05;;;20.50;99.90;;;;;;5032019;28;20033;-54
2023/06/30 11:05:18;;;;;;;37.28;29.45;;;20.50;99.90;;;;;;5032419;28;20017;-54
2023/06/30 11:08:07;;;;;;;36.08;28.75;;;20.40;99.90;;;;;;5032022;28;20117;-55
2023/06/30 11:11:02;;;;;;;34.95;26.65;;;20.40;99.90;;;;;;5031816;28;20108;-53
2023/06/30 11:13:49;;;;;;;32.03;26.05;;;20.40;99.90;;;;;;5027922;28;20025;-52
2023/06/30 11:17:02;;;;;;;32.22;25.27;;;20.40;99.90;;;;;;5030397;28;20028;-55
2023/06/30 11:20:18;;;;;;;35.25;27.30;;;20.40;99.90;;;;;;5031060;28;20018;-54
2023/06/30 11:23:06;;;;;;;39.85;28.38;;;20.30;99.90;;;;;;5030435;28;20041;-56
2023/06/30 11:25:56;;;;;;;36.25;27.63;;;20.20;99.90;;;;;;5031082;28;20025;-56
2023/06/30 11:28:44;;;;;;;36.00;28.40;;;20.10;99.90;;;;;;5033709;28;20091;-58
2023/06/30 11:31:36;;;;;;;36.67;27.98;;;20.10;99.90;;;;;;5026709;28;20037;-58
2023/06/30 11:34:22;;;;;;;32.58;26.27;;;20.10;99.90;;;;;;5024295;28;20036;-58
2023/06/30 11:37:08;;;;;;;23.20;18.02;;;20.00;99.90;;;;;;5026393;28;20490;-54
2023/06/30 11:39:56;;;;;;;20.65;15.93;;;20.00;99.90;;;;;;5036040;28;20033;-58
2023/06/30 11:42:43;;;;;;;15.60;12.43;;;19.90;99.90;;;;;;5036942;28;20056;-58
2023/06/30 11:45:28;;;;;;;15.55;12.55;;;19.90;99.90;;;;;;5032390;28;20091;-57
2023/06/30 11:48:15;;;;;;;17.52;14.77;;;19.90;99.90;;;;;;5033334;28;20033;-56
2023/06/30 11:51:01;;;;;;;22.00;18.33;;;19.90;99.90;;;;;;5032628;28;20498;-57
2023/06/30 11:53:47;;;;;;;25.60;19.17;;;19.90;99.90;;;;;;5023306;28;20022;-57
2023/06/30 11:56:38;;;;;;;25.90;21.45;;;19.90;99.90;;;;;;5029232;28;20030;-55
2023/06/30 11:59:25;;;;;;;25.25;20.23;;;20.00;99.90;;;;;;5031327;28;20040;-57
2023/06/30 12:02:12;;;;;;;25.60;20.58;;;20.00;99.90;;;;;;5032735;28;20068;-56
2023/06/30 12:04:58;;;;;;;28.00;21.00;;;20.10;99.90;;;;;;5033978;28;20042;-55
2023/06/30 12:07:46;;;;;;;27.38;22.05;;;20.30;99.90;;;;;;5031137;28;20037;-55
2023/06/30 12:10:41;;;;;;;27.73;21.95;;;20.20;99.90;;;;;;5029361;28;20561;-57
2023/06/30 12:13:27;;;;;;;27.00;22.33;;;20.10;99.90;;;;;;5058917;28;20053;-55
2023/06/30 12:16:13;;;;;;;26.45;21.23;;;20.10;99.90;;;;;;5029647;28;20033;-57
2023/06/30 12:19:06;;;;;;;26.58;22.70;;;20.10;99.90;;;;;;5031198;28;20064;-57
2023/06/30 12:21:57;;;;;;;15.23;11.60;;;20.10;99.90;;;;;;5031054;28;20029;-57
2023/06/30 12:24:43;;;;;;;11.05;9.55;;;20.00;99.90;;;;;;5038579;28;20030;-56
2023/06/30 12:27:31;;;;;;;11.73;9.20;;;19.80;99.90;;;;;;5031770;28;20038;-55
2023/06/30 12:30:18;;;;;;;12.77;10.43;;;19.70;99.90;;;;;;5033114;28;20087;-57
2023/06/30 12:33:04;;;;;;;12.23;9.80;;;19.60;99.90;;;;;;5034128;28;20041;-56
2023/06/30 12:35:50;;;;;;;10.07;8.35;;;19.70;99.90;;;;;;5031205;28;20105;-56
2023/06/30 12:38:36;;;;;;;9.73;8.20;;;19.80;99.90;;;;;;5059606;28;20462;-57
2023/06/30 12:41:22;;;;;;;8.80;7.82;;;19.90;99.90;;;;;;5031391;28;20033;-58
2023/06/30 12:44:08;;;;;;;8.88;7.55;;;20.00;99.90;;;;;;5035491;28;20025;-56
2023/06/30 12:47:05;;;;;;;8.32;6.65;;;20.10;99.90;;;;;;5033433;28;20386;-57
2023/06/30 12:49:51;;;;;;;10.13;6.78;;;20.00;99.90;;;;;;5032735;28;20032;-57
2023/06/30 12:52:37;;;;;;;7.25;5.93;;;19.90;99.90;;;;;;5032345;28;20108;-56
2023/06/30 12:55:23;;;;;;;7.03;5.53;;;19.80;99.90;;;;;;5031306;28;20022;-57
2023/06/30 12:58:09;;;;;;;7.75;6.32;;;19.70;99.90;;;;;;5032331;28;20116;-54
2023/06/30 13:00:59;;;;;;;7.03;6.25;;;19.80;99.90;;;;;;5032545;28;20401;-55
2023/06/30 13:03:46;;;;;;;7.88;6.30;;;19.60;99.90;;;;;;5060764;28;20030;-52
2023/06/30 13:06:32;;;;;;;7.70;6.15;;;19.50;99.90;;;;;;5031105;28;20065;-55
2023/06/30 13:09:18;;;;;;;8.23;6.70;;;19.40;99.90;;;;;;5032340;28;20026;-55
2023/06/30 13:12:07;;;;;;;8.63;7.13;;;19.30;99.90;;;;;;5035067;28;20095;-54
2023/06/30 13:14:53;;;;;;;7.82;6.75;;;19.30;99.90;;;;;;5040721;28;20041;-52
2023/06/30 13:17:39;;;;;;;7.03;6.13;;;19.10;99.90;;;;;;5041631;28;20028;-54
2023/06/30 13:20:25;;;;;;;8.23;7.07;;;18.60;99.90;;;;;;5049669;28;20055;-53
2023/06/30 13:23:11;;;;;;;6.97;6.28;;;18.40;99.90;;;;;;5043373;28;20461;-56
2023/06/30 13:25:57;;;;;;;7.18;5.88;;;18.50;99.90;;;;;;5037612;28;20115;-55
2023/06/30 13:28:43;;;;;;;6.75;6.05;;;18.50;99.90;;;;;;5048944;28;20045;-57
2023/06/30 13:31:29;;;;;;;7.30;6.60;;;18.70;99.90;;;;;;5045658;28;20029;-51
2023/06/30 13:34:15;;;;;;;7.18;6.47;;;18.80;99.90;;;;;;5038356;28;20061;-55
2023/06/30 13:37:01;;;;;;;7.85;6.55;;;18.80;99.90;;;;;;5044954;28;20491;-53
2023/06/30 13:39:47;;;;;;;7.63;6.50;;;18.70;99.90;;;;;;5035836;28;20036;-55
2023/06/30 13:42:34;;;;;;;7.80;7.00;;;18.80;99.90;;;;;;5035003;28;20075;-54
2023/06/30 13:45:20;;;;;;;8.02;6.93;;;18.70;99.90;;;;;;5034079;28;20037;-53
2023/06/30 13:48:06;;;;;;;6.97;6.05;;;18.70;99.90;;;;;;5035625;28;20088;-58
2023/06/30 13:50:52;;;;;;;6.95;6.22;;;18.90;99.90;;;;;;5041838;28;20234;-55
2023/06/30 13:53:39;;;;;;;7.38;6.35;;;19.20;99.90;;;;;;5043471;28;20025;-58
2023/06/30 13:56:26;;;;;;;7.28;6.55;;;19.40;99.90;;;;;;5049028;28;20022;-58
2023/06/30 13:59:12;;;;;;;7.80;7.05;;;19.30;99.90;;;;;;5035807;28;20126;-58
2023/06/30 14:01:58;;;;;;;7.68;6.95;;;19.20;99.90;;;;;;5033614;28;20057;-58
2023/06/30 14:04:44;;;;;;;7.35;6.60;;;19.10;99.90;;;;;;5034866;28;20037;-58
2023/06/30 14:07:30;;;;;;;7.75;7.05;;;19.10;99.90;;;;;;5031530;28;20033;-59
2023/06/30 14:10:16;;;;;;;6.78;6.07;;;19.20;99.90;;;;;;5035543;28;20037;-58